Time;durP1;ratioP1;P1;durP2;ratioP2;P2;SDS_P1;SDS_P2;PMS_P1;PMS_P2;Temp;Humidity;BMP_temperature;BMP_pressure;BME280_temperature;BME280_humidity;BME280_pressure;Samples;Min_cycle;Max_cycle;Signal;HPM_P1;HPM_P2
2022/01/15 00:01:58;;;;;;;;;;;15.20;34.20;;;;;;8333871;28;19913;-49
2022/01/15 00:05:59;;;;;;;;;;;15.20;34.20;;;;;;8334196;28;20306;-49
2022/01/15 00:09:59;;;;;;;;;;;15.20;34.20;;;;;;8332279;28;20393;-49
2022/01/15 00:14:12;;;;;;;;;;;15.30;34.10;;;;;;8333533;28;19925;-49
2022/01/15 00:18:15;;;;;;;;;;;15.30;34.10;;;;;;8333461;28;19920;-49
2022/01/15 00:22:17;;;;;;;;;;;15.30;34.00;;;;;;8332814;28;19932;-49
2022/01/15 00:26:17;;;;;;;;;;;15.30;34.00;;;;;;8333381;28;20255;-49
2022/01/15 00:30:18;;;;;;;;;;;15.20;34.50;;;;;;8332809;28;19917;-48
2022/01/15 00:34:19;;;;;;;;;;;15.30;34.00;;;;;;8332318;28;19948;-48
2022/01/15 00:38:19;;;;;;;;;;;15.30;34.00;;;;;;8332871;28;19943;-49
2022/01/15 00:42:19;;;;;;;;;;;15.20;34.00;;;;;;8332802;28;20015;-48
2022/01/15 00:46:20;;;;;;;;;;;15.20;34.00;;;;;;8332275;28;20055;-48
2022/01/15 00:50:20;;;;;;;;;;;15.20;34.00;;;;;;8332464;28;20275;-48
2022/01/15 00:54:21;;;;;;;;;;;15.20;34.10;;;;;;8332356;28;19963;-48
2022/01/15 00:58:21;;;;;;;;;;;15.20;34.10;;;;;;8331859;28;19927;-48
2022/01/15 01:02:22;;;;;;;;;;;15.20;34.10;;;;;;8332432;28;19913;-49
2022/01/15 01:06:22;;;;;;;;;;;15.20;34.10;;;;;;8332238;28;19949;-49
2022/01/15 01:23:22;;;;;;;;;;;15.10;34.20;;;;;;8331649;28;19943;-48
2022/01/15 01:27:28;;;;;;;;;;;15.10;34.20;;;;;;8331140;28;19913;-49
2022/01/15 01:31:36;;;;;;;;;;;15.10;34.20;;;;;;8312968;28;19925;-48
2022/01/15 01:35:42;;;;;;;;;;;15.10;34.70;;;;;;8331323;28;19940;-48
2022/01/15 01:39:46;;;;;;;;;;;15.10;34.10;;;;;;8331055;28;19953;-50
2022/01/15 01:43:54;;;;;;;;;;;15.10;34.10;;;;;;8364007;28;20385;-49
2022/01/15 01:47:54;;;;;;;;;;;15.10;34.10;;;;;;8364845;28;19920;-49
2022/01/15 01:51:55;;;;;;;;;;;15.20;34.10;;;;;;8363382;28;19928;-48
2022/01/15 01:55:55;;;;;;;;;;;15.20;34.10;;;;;;8363619;28;19920;-49
2022/01/15 01:59:56;;;;;;;;;;;15.20;34.00;;;;;;8363553;28;19917;-52
2022/01/15 02:03:56;;;;;;;;;;;15.20;34.00;;;;;;8352192;28;20054;-48
2022/01/15 02:07:56;;;;;;;;;;;15.20;34.00;;;;;;8363372;28;19920;-49
2022/01/15 02:11:57;;;;;;;;;;;15.20;34.00;;;;;;8363409;28;19925;-49
2022/01/15 02:15:58;;;;;;;;;;;15.20;34.00;;;;;;8362828;28;19917;-51
2022/01/15 02:24:06;;;;;;;;;;;15.20;34.00;;;;;;8366552;28;19913;-51
2022/01/15 02:28:07;;;;;;;;;;;15.20;34.00;;;;;;8362523;28;19920;-52
2022/01/15 02:32:07;;;;;;;;;;;15.20;34.00;;;;;;8365209;28;19930;-49
2022/01/15 02:36:09;;;;;;;;;;;15.20;34.00;;;;;;8369781;28;20366;-48
2022/01/15 02:40:11;;;;;;;;;;;15.10;34.00;;;;;;8369246;28;19917;-49
2022/01/15 02:44:16;;;;;;;;;;;15.10;34.00;;;;;;8369892;28;19917;-48
2022/01/15 02:48:17;;;;;;;;;;;15.10;34.00;;;;;;8369444;28;19917;-49
2022/01/15 02:52:18;;;;;;;;;;;15.10;34.00;;;;;;8369046;28;20449;-50
2022/01/15 02:56:18;;;;;;;;;;;15.10;34.00;;;;;;8367041;28;19980;-47
2022/01/15 03:00:20;;;;;;;;;;;15.10;34.00;;;;;;8369096;28;19917;-47
2022/01/15 03:04:20;;;;;;;;;;;15.10;34.10;;;;;;8368442;28;19917;-48
2022/01/15 03:08:21;;;;;;;;;;;15.10;34.00;;;;;;8369129;28;20015;-47
2022/01/15 03:12:22;;;;;;;;;;;15.00;34.00;;;;;;8368890;28;20396;-47
2022/01/15 03:16:23;;;;;;;;;;;15.00;34.00;;;;;;8368160;28;19959;-48
2022/01/15 03:20:23;;;;;;;;;;;15.00;34.00;;;;;;8368618;28;19963;-49
2022/01/15 03:24:24;;;;;;;;;;;15.00;34.00;;;;;;8368377;28;19952;-49
2022/01/15 03:28:24;;;;;;;;;;;15.10;34.00;;;;;;8367669;28;19921;-49
2022/01/15 03:32:25;;;;;;;;;;;15.10;34.00;;;;;;8368387;28;20063;-48
2022/01/15 03:36:25;;;;;;;;;;;15.10;34.00;;;;;;8368013;28;20008;-47
2022/01/15 03:40:26;;;;;;;;;;;15.10;34.00;;;;;;8367270;28;19921;-49
2022/01/15 03:44:26;;;;;;;;;;;15.10;33.90;;;;;;8367517;28;19964;-49
2022/01/15 03:48:27;;;;;;;;;;;15.10;33.90;;;;;;8367332;28;20385;-50
2022/01/15 03:52:28;;;;;;;;;;;15.10;33.80;;;;;;8367036;28;20330;-49
2022/01/15 03:56:30;;;;;;;;;;;15.10;33.80;;;;;;8367447;28;19924;-46
2022/01/15 04:00:30;;;;;;;;;;;15.10;33.80;;;;;;8367344;28;19924;-48
2022/01/15 04:04:30;;;;;;;;;;;15.10;33.70;;;;;;8366974;28;19917;-49
2022/01/15 04:08:31;;;;;;;;;;;15.10;33.80;;;;;;8366958;28;19917;-47
2022/01/15 04:12:31;;;;;;;;;;;15.10;33.70;;;;;;8366965;28;19956;-49
2022/01/15 04:16:32;;;;;;;;;;;15.10;33.80;;;;;;8366393;28;19917;-48
2022/01/15 04:20:33;;;;;;;;;;;15.10;33.80;;;;;;8366971;28;19940;-49
2022/01/15 04:24:33;;;;;;;;;;;15.10;33.90;;;;;;8366387;28;19923;-48
2022/01/15 04:28:34;;;;;;;;;;;15.10;33.90;;;;;;8365836;28;19971;-49
2022/01/15 04:32:35;;;;;;;;;;;15.00;33.90;;;;;;8366564;28;19921;-49
2022/01/15 04:36:35;;;;;;;;;;;15.00;33.80;;;;;;8366193;28;19927;-49
2022/01/15 04:40:36;;;;;;;;;;;15.00;33.80;;;;;;8365773;28;19917;-50
2022/01/15 04:44:37;;;;;;;;;;;15.00;33.80;;;;;;8366055;28;20012;-48
2022/01/15 04:48:37;;;;;;;;;;;15.00;33.90;;;;;;8365804;28;20356;-49
2022/01/15 04:52:38;;;;;;;;;;;15.00;33.90;;;;;;8365508;28;19921;-49
2022/01/15 04:56:39;;;;;;;;;;;15.00;33.90;;;;;;8365166;28;19948;-49
2022/01/15 05:00:39;;;;;;;;;;;15.00;33.90;;;;;;8365259;28;19924;-48
2022/01/15 05:04:39;;;;;;;;;;;15.00;33.90;;;;;;8361803;28;19959;-48
2022/01/15 05:08:41;;;;;;;;;;;15.00;33.90;;;;;;8365499;28;19924;-50
2022/01/15 05:12:44;;;;;;;;;;;14.90;33.80;;;;;;8365543;28;19925;-47
2022/01/15 05:16:44;;;;;;;;;;;14.90;33.80;;;;;;8364430;28;19924;-48
2022/01/15 05:20:45;;;;;;;;;;;14.90;33.80;;;;;;8364834;28;19920;-49
2022/01/15 05:24:46;;;;;;;;;;;14.90;33.80;;;;;;8364048;28;19917;-48
2022/01/15 05:28:46;;;;;;;;;;;14.90;33.80;;;;;;8364536;28;19923;-49
2022/01/15 05:32:47;;;;;;;;;;;14.90;33.80;;;;;;8364737;28;19920;-48
2022/01/15 05:36:47;;;;;;;;;;;14.90;33.80;;;;;;8363651;28;19917;-48
2022/01/15 05:40:48;;;;;;;;;;;14.90;33.80;;;;;;8363989;28;19923;-49
2022/01/15 05:44:48;;;;;;;;;;;14.90;33.80;;;;;;8364098;28;20006;-48
2022/01/15 05:48:49;;;;;;;;;;;14.90;33.80;;;;;;8363263;28;19944;-50
2022/01/15 05:52:49;;;;;;;;;;;14.90;33.80;;;;;;8363785;28;20350;-50
2022/01/15 05:56:49;;;;;;;;;;;14.90;33.90;;;;;;8363530;28;19916;-47
2022/01/15 06:00:50;;;;;;;;;;;14.90;33.80;;;;;;8363063;28;19913;-49
2022/01/15 06:04:50;;;;;;;;;;;14.90;33.80;;;;;;8363637;28;20015;-48
2022/01/15 06:08:51;;;;;;;;;;;14.80;33.80;;;;;;8362517;28;19913;-48
2022/01/15 06:12:51;;;;;;;;;;;14.90;33.90;;;;;;8362821;28;19979;-48
2022/01/15 06:16:52;;;;;;;;;;;14.80;33.90;;;;;;8363397;28;19979;-48
2022/01/15 06:20:52;;;;;;;;;;;14.80;33.90;;;;;;8363139;28;20020;-48
2022/01/15 06:24:53;;;;;;;;;;;14.80;33.80;;;;;;8362577;28;19935;-49
2022/01/15 06:28:53;;;;;;;;;;;14.80;33.80;;;;;;8363023;28;20321;-47
2022/01/15 06:32:54;;;;;;;;;;;14.80;33.80;;;;;;8363243;28;19925;-49
2022/01/15 06:36:54;;;;;;;;;;;14.80;33.80;;;;;;8362398;28;19917;-48
2022/01/15 06:40:54;;;;;;;;;;;14.80;33.80;;;;;;8362877;28;19952;-49
2022/01/15 06:44:55;;;;;;;;;;;14.80;33.80;;;;;;8362603;28;20416;-48
2022/01/15 06:48:55;;;;;;;;;;;14.80;33.80;;;;;;8362170;28;20377;-49
2022/01/15 06:52:56;;;;;;;;;;;14.80;33.80;;;;;;8362772;28;19928;-47
2022/01/15 06:56:56;;;;;;;;;;;14.80;33.80;;;;;;8362464;28;20449;-48
2022/01/15 07:00:57;;;;;;;;;;;14.80;33.90;;;;;;8361951;28;19924;-49
2022/01/15 07:04:57;;;;;;;;;;;14.80;33.80;;;;;;8362291;28;19928;-49
2022/01/15 07:08:58;;;;;;;;;;;14.80;33.80;;;;;;8362456;28;19995;-49
2022/01/15 07:12:58;;;;;;;;;;;14.80;33.80;;;;;;8361706;28;19928;-49
2022/01/15 07:16:58;;;;;;;;;;;14.80;33.80;;;;;;8362126;28;19924;-49
2022/01/15 07:20:59;;;;;;;;;;;14.80;33.80;;;;;;8368205;28;20400;-48
2022/01/15 07:24:59;;;;;;;;;;;14.70;33.80;;;;;;8367281;28;19923;-49
2022/01/15 07:29:00;;;;;;;;;;;14.70;33.80;;;;;;8368200;28;19944;-51
2022/01/15 07:33:00;;;;;;;;;;;14.80;33.80;;;;;;8367938;28;19925;-49
2022/01/15 07:37:02;;;;;;;;;;;14.80;33.80;;;;;;8367483;28;20413;-48
2022/01/15 07:41:02;;;;;;;;;;;14.80;33.80;;;;;;8367617;28;19917;-49
2022/01/15 07:45:04;;;;;;;;;;;14.80;33.80;;;;;;8367766;28;19924;-50
2022/01/15 07:49:04;;;;;;;;;;;14.90;33.80;;;;;;8367306;28;19928;-49
2022/01/15 07:53:05;;;;;;;;;;;14.90;33.70;;;;;;8367189;28;19924;-49
2022/01/15 07:57:05;;;;;;;;;;;14.90;33.70;;;;;;8366984;28;19928;-49
2022/01/15 08:01:06;;;;;;;;;;;14.90;33.60;;;;;;8366626;28;20010;-49
2022/01/15 08:05:06;;;;;;;;;;;15.00;33.60;;;;;;8354770;28;19999;-50
2022/01/15 08:09:07;;;;;;;;;;;15.00;33.60;;;;;;8367178;28;19917;-49
2022/01/15 08:13:08;;;;;;;;;;;15.00;33.60;;;;;;8366121;28;19925;-49
2022/01/15 08:17:08;;;;;;;;;;;15.00;33.60;;;;;;8366331;28;20322;-49
2022/01/15 08:21:09;;;;;;;;;;;15.00;33.50;;;;;;8366030;28;20290;-48
2022/01/15 08:25:09;;;;;;;;;;;15.00;33.60;;;;;;8365881;28;19924;-49
2022/01/15 08:29:10;;;;;;;;;;;14.90;33.60;;;;;;8365571;28;19913;-48
2022/01/15 08:33:11;;;;;;;;;;;14.90;33.50;;;;;;8366566;28;20409;-48
2022/01/15 08:37:11;;;;;;;;;;;14.90;33.60;;;;;;8365523;28;19924;-49
2022/01/15 08:41:13;;;;;;;;;;;14.90;33.50;;;;;;8365787;28;19923;-49
2022/01/15 08:45:15;;;;;;;;;;;14.90;33.60;;;;;;8366324;28;19920;-49
2022/01/15 08:49:15;;;;;;;;;;;14.90;33.60;;;;;;8365533;28;19929;-49
2022/01/15 08:53:18;;;;;;;;;;;14.90;33.60;;;;;;8365505;28;19936;-50
2022/01/15 08:57:18;;;;;;;;;;;14.90;33.70;;;;;;8365949;28;19966;-50
2022/01/15 09:01:19;;;;;;;;;;;14.90;33.50;;;;;;8365071;28;19917;-53
2022/01/15 09:05:19;;;;;;;;;;;14.80;34.00;;;;;;8365222;28;19913;-50
2022/01/15 09:09:20;;;;;;;;;;;14.80;34.00;;;;;;8365893;28;19971;-52
2022/01/15 09:13:21;;;;;;;;;;;14.80;34.00;;;;;;8364651;28;19932;-51
2022/01/15 09:17:21;;;;;;;;;;;14.90;34.00;;;;;;8365136;28;19925;-51
2022/01/15 09:21:22;;;;;;;;;;;14.90;33.90;;;;;;8364504;28;19920;-49
2022/01/15 09:25:22;;;;;;;;;;;14.90;33.90;;;;;;8364120;28;19952;-49
2022/01/15 09:33:42;;;;;;;;;;;14.90;33.90;;;;;;8364744;28;20286;-53
2022/01/15 09:37:42;;;;;;;;;;;14.90;33.80;;;;;;8363529;28;20004;-51
2022/01/15 09:41:46;;;;;;;;;;;15.00;33.90;;;;;;8363872;28;19919;-51
2022/01/15 09:45:46;;;;;;;;;;;15.00;33.90;;;;;;8363891;28;20007;-50
2022/01/15 09:49:47;;;;;;;;;;;15.00;33.90;;;;;;8363560;28;20338;-49
2022/01/15 09:53:48;;;;;;;;;;;15.00;33.80;;;;;;8362544;28;19948;-50
2022/01/15 09:57:49;;;;;;;;;;;15.00;33.80;;;;;;8361802;28;19913;-49
2022/01/15 10:01:49;;;;;;;;;;;15.00;33.90;;;;;;8362262;28;20476;-52
2022/01/15 10:05:50;;;;;;;;;;;15.00;33.80;;;;;;8361804;28;20417;-50
2022/01/15 10:09:50;;;;;;;;;;;15.00;33.80;;;;;;8361408;28;19971;-51
2022/01/15 10:13:51;;;;;;;;;;;15.00;33.90;;;;;;8361890;28;19925;-53
2022/01/15 10:17:51;;;;;;;;;;;15.00;33.90;;;;;;8361689;28;19948;-53
2022/01/15 10:22:07;;;;;;;;;;;15.00;33.90;;;;;;8360970;28;19920;-50
2022/01/15 10:26:15;;;;;;;;;;;15.00;33.90;;;;;;8362784;28;19920;-49
2022/01/15 10:30:17;;;;;;;;;;;15.00;33.90;;;;;;8363241;28;20841;-51
2022/01/15 10:34:28;;;;;;;;;;;15.00;33.90;;;;;;8362146;28;19932;-51
2022/01/15 10:38:33;;;;;;;;;;;15.00;34.00;;;;;;8362751;28;19917;-49
2022/01/15 10:42:34;;;;;;;;;;;15.00;34.00;;;;;;8362580;28;19913;-53
2022/01/15 10:46:35;;;;;;;;;;;14.90;34.00;;;;;;8362035;28;20370;-50
2022/01/15 10:50:37;;;;;;;;;;;14.90;34.00;;;;;;8362342;28;19924;-50
2022/01/15 10:54:48;;;;;;;;;;;14.90;34.00;;;;;;8367394;28;19929;-48
2022/01/15 10:59:05;;;;;;;;;;;15.00;34.00;;;;;;8369124;28;19952;-50
2022/01/15 11:03:07;;;;;;;;;;;15.00;34.00;;;;;;8369036;28;19975;-52
2022/01/15 11:07:14;;;;;;;;;;;15.00;34.00;;;;;;8361079;28;19920;-52
2022/01/15 11:11:16;;;;;;;;;;;15.00;34.10;;;;;;8368829;28;19913;-50
2022/01/15 11:15:16;;;;;;;;;;;15.00;34.10;;;;;;8368750;28;19937;-54
2022/01/15 11:19:17;;;;;;;;;;;15.00;34.00;;;;;;8368064;28;20423;-51
2022/01/15 11:23:18;;;;;;;;;;;15.10;34.10;;;;;;8368258;28;19920;-51
2022/01/15 11:27:19;;;;;;;;;;;15.10;34.00;;;;;;8368105;28;19913;-50
2022/01/15 11:31:26;;;;;;;;;;;15.10;34.10;;;;;;8367585;28;19940;-51
2022/01/15 11:35:56;;;;;;;;;;;15.20;34.00;;;;;;8368135;28;19952;-49
2022/01/15 11:39:56;;;;;;;;;;;15.20;34.00;;;;;;8354086;28;19924;-53
2022/01/15 11:44:01;;;;;;;;;;;15.20;34.00;;;;;;8367998;28;19966;-51
2022/01/15 11:48:23;;;;;;;;;;;15.20;34.00;;;;;;8367476;28;19996;-52
2022/01/15 11:52:24;;;;;;;;;;;15.20;34.00;;;;;;8366815;28;19925;-51
2022/01/15 11:56:26;;;;;;;;;;;15.30;34.00;;;;;;8367219;28;19917;-52
2022/01/15 12:00:28;;;;;;;;;;;15.20;34.00;;;;;;8367450;28;19925;-53
2022/01/15 12:04:29;;;;;;;;;;;15.20;34.00;;;;;;8364837;28;20431;-48
2022/01/15 12:08:30;;;;;;;;;;;15.20;33.80;;;;;;8367289;28;20469;-48
2022/01/15 12:12:35;;;;;;;;;;;14.70;32.00;;;;;;8366812;28;20285;-51
2022/01/15 12:16:36;;;;;;;;;;;14.00;33.10;;;;;;8366059;28;19964;-51
2022/01/15 12:20:37;;;;;;;;;;;13.40;33.80;;;;;;8338361;28;19932;-45
2022/01/15 12:24:50;;;;;;;;;;;13.10;34.50;;;;;;8359003;28;20375;-47
2022/01/15 12:28:51;;;;;;;;;;;12.80;35.20;;;;;;8353723;28;19917;-51
2022/01/15 12:32:52;;;;;;;;;;;12.60;35.70;;;;;;8329949;28;19932;-53
2022/01/15 12:36:53;;;;;;;;;;;12.30;36.20;;;;;;8331248;28;20428;-50
2022/01/15 12:41:06;;;;;;;;;;;12.20;36.80;;;;;;8333570;28;19917;-51
2022/01/15 12:45:06;;;;;;;;;;;12.30;37.00;;;;;;8332865;28;19921;-48
2022/01/15 12:49:07;;;;;;;;;;;12.70;36.80;;;;;;8332092;28;19921;-48
2022/01/15 12:53:08;;;;;;;;;;;13.10;36.40;;;;;;8332456;28;19948;-51
2022/01/15 12:57:08;;;;;;;;;;;13.40;35.80;;;;;;8332309;28;20290;-47
2022/01/15 13:01:09;;;;;;;;;;;13.80;35.30;;;;;;8331946;28;20345;-48
2022/01/15 13:05:11;;;;;;;;;;;14.00;34.90;;;;;;8332339;28;19971;-49
2022/01/15 13:09:12;;;;;;;;;;;14.30;34.60;;;;;;8332207;28;19944;-50
2022/01/15 13:13:23;;;;;;;;;;;14.40;34.30;;;;;;8331294;28;19925;-49
2022/01/15 13:17:24;;;;;;;;;;;14.60;34.20;;;;;;8331520;28;20012;-48
2022/01/15 13:21:26;;;;;;;;;;;14.70;34.10;;;;;;8331662;28;20008;-49
2022/01/15 13:25:28;;;;;;;;;;;14.80;34.10;;;;;;8330926;28;19924;-50
2022/01/15 13:29:39;;;;;;;;;;;14.90;34.00;;;;;;8331540;28;19975;-48
2022/01/15 13:33:44;;;;;;;;;;;15.00;34.00;;;;;;8331125;28;19925;-48
2022/01/15 13:37:51;;;;;;;;;;;15.00;33.90;;;;;;8330575;28;19939;-50
2022/01/15 13:41:52;;;;;;;;;;;15.00;33.90;;;;;;8330958;28;19959;-49
2022/01/15 13:46:03;;;;;;;;;;;15.10;33.90;;;;;;8330510;28;20331;-48
2022/01/15 13:55:01;;;;;;;;;;;15.10;34.00;;;;;;8262450;28;19933;-50
2022/01/15 13:59:03;;;;;;;;;;;15.10;33.90;;;;;;8298477;28;25949;-47
2022/01/15 14:03:05;;;;;;;;;;;15.10;34.00;;;;;;8329250;28;19971;-49
2022/01/15 14:07:09;;;;;;;;;;;15.10;34.00;;;;;;8329980;28;20396;-49
2022/01/15 14:11:10;;;;;;;;;;;15.10;34.00;;;;;;8330482;28;19952;-49
2022/01/15 14:15:14;;;;;;;;;;;15.10;34.00;;;;;;8330199;28;20316;-49
2022/01/15 14:19:27;;;;;;;;;;;15.10;34.00;;;;;;8329854;28;19917;-48
2022/01/15 14:23:28;;;;;;;;;;;15.10;34.00;;;;;;8330510;28;20283;-50
2022/01/15 14:27:28;;;;;;;;;;;15.10;34.00;;;;;;8329302;28;20443;-49
2022/01/15 14:31:29;;;;;;;;;;;15.10;34.10;;;;;;8329737;28;19952;-49
2022/01/15 14:35:30;;;;;;;;;;;15.10;34.00;;;;;;8329922;28;19925;-49
2022/01/15 14:39:30;;;;;;;;;;;15.10;34.10;;;;;;8329831;28;19924;-49
2022/01/15 14:43:31;;;;;;;;;;;15.10;34.10;;;;;;8329214;28;19921;-48
2022/01/15 14:47:31;;;;;;;;;;;15.00;34.10;;;;;;8329602;28;19921;-49
2022/01/15 14:51:32;;;;;;;;;;;15.00;34.10;;;;;;8329889;28;20287;-49
2022/01/15 14:55:32;;;;;;;;;;;15.10;34.10;;;;;;8328921;28;19972;-48
2022/01/15 14:59:33;;;;;;;;;;;15.00;34.10;;;;;;8329586;28;20017;-48
2022/01/15 15:03:33;;;;;;;;;;;15.00;34.10;;;;;;8329402;28;19993;-50
2022/01/15 15:07:34;;;;;;;;;;;15.00;34.20;;;;;;8328803;28;20016;-47
2022/01/15 15:11:35;;;;;;;;;;;15.00;34.10;;;;;;8329573;28;20343;-47
2022/01/15 15:15:37;;;;;;;;;;;15.00;34.20;;;;;;8329079;28;20298;-49
2022/01/15 15:19:37;;;;;;;;;;;15.00;34.20;;;;;;8328872;28;19961;-48
2022/01/15 15:23:38;;;;;;;;;;;15.00;34.20;;;;;;8329210;28;20470;-48
2022/01/15 15:27:39;;;;;;;;;;;15.00;34.20;;;;;;8329177;28;20359;-46
2022/01/15 15:31:40;;;;;;;;;;;15.10;34.20;;;;;;8328732;28;20234;-49
2022/01/15 15:35:40;;;;;;;;;;;15.10;34.30;;;;;;8328978;28;19928;-48
2022/01/15 15:39:41;;;;;;;;;;;15.10;34.20;;;;;;8331846;28;19921;-50
2022/01/15 15:43:41;;;;;;;;;;;15.10;34.20;;;;;;8334387;28;19921;-49
2022/01/15 15:47:42;;;;;;;;;;;15.20;34.20;;;;;;8335035;28;19956;-48
2022/01/15 15:51:42;;;;;;;;;;;15.20;34.10;;;;;;8334953;28;19929;-49
2022/01/15 15:55:43;;;;;;;;;;;15.20;34.10;;;;;;8333972;28;19921;-48
2022/01/15 15:59:46;;;;;;;;;;;15.20;34.10;;;;;;8334287;28;20422;-49
2022/01/15 16:03:47;;;;;;;;;;;15.20;34.10;;;;;;8333832;28;19924;-48
2022/01/15 16:07:47;;;;;;;;;;;15.20;34.10;;;;;;8333969;28;20385;-47
2022/01/15 16:11:48;;;;;;;;;;;15.20;34.10;;;;;;8334047;28;19987;-48
2022/01/15 16:15:48;;;;;;;;;;;15.20;34.20;;;;;;8333324;28;20367;-48
2022/01/15 16:19:49;;;;;;;;;;;15.20;34.20;;;;;;8333557;28;20298;-49
2022/01/15 16:23:49;;;;;;;;;;;15.10;34.20;;;;;;8333591;28;20341;-48
2022/01/15 16:27:49;;;;;;;;;;;15.10;34.20;;;;;;8333089;28;19917;-47
2022/01/15 16:31:50;;;;;;;;;;;15.10;34.20;;;;;;8333674;28;19917;-49
2022/01/15 16:35:50;;;;;;;;;;;15.10;34.20;;;;;;8333102;28;19929;-48
2022/01/15 16:39:51;;;;;;;;;;;15.10;34.30;;;;;;8333619;28;19963;-46
2022/01/15 16:43:51;;;;;;;;;;;15.10;34.30;;;;;;8330864;28;20390;-48
2022/01/15 16:47:52;;;;;;;;;;;15.10;34.30;;;;;;8337060;28;19917;-48
2022/01/15 16:51:52;;;;;;;;;;;15.10;34.30;;;;;;8354347;28;19928;-47
2022/01/15 16:55:53;;;;;;;;;;;15.10;34.40;;;;;;8336016;28;19921;-49
2022/01/15 16:59:53;;;;;;;;;;;15.00;34.30;;;;;;8337970;28;20358;-46
2022/01/15 17:03:54;;;;;;;;;;;15.00;34.30;;;;;;8331188;28;20279;-50
2022/01/15 17:07:55;;;;;;;;;;;15.00;34.40;;;;;;8340602;28;19917;-46
2022/01/15 17:11:55;;;;;;;;;;;15.00;34.40;;;;;;8336108;28;19995;-48
2022/01/15 17:15:56;;;;;;;;;;;15.10;34.40;;;;;;8331529;28;19967;-47
2022/01/15 17:19:56;;;;;;;;;;;15.10;34.30;;;;;;8335947;28;19921;-49
2022/01/15 17:23:57;;;;;;;;;;;15.00;34.30;;;;;;8341862;28;19928;-45
2022/01/15 17:28:00;;;;;;;;;;;15.10;34.30;;;;;;8329324;28;20000;-49
2022/01/15 17:32:00;;;;;;;;;;;15.10;34.30;;;;;;8343310;28;19917;-47
2022/01/15 17:36:01;;;;;;;;;;;15.10;34.30;;;;;;8339715;28;19917;-48
2022/01/15 17:40:02;;;;;;;;;;;15.10;34.30;;;;;;8347051;28;19917;-49
2022/01/15 17:44:03;;;;;;;;;;;15.10;34.20;;;;;;8321558;28;19981;-47
2022/01/15 17:48:03;;;;;;;;;;;15.10;34.20;;;;;;8350961;28;20286;-49
2022/01/15 17:52:04;;;;;;;;;;;15.10;34.30;;;;;;8349731;28;20297;-48
2022/01/15 17:56:05;;;;;;;;;;;15.20;34.30;;;;;;8353505;28;19917;-48
2022/01/15 18:00:07;;;;;;;;;;;15.20;34.80;;;;;;8349189;28;19963;-48
2022/01/15 18:04:07;;;;;;;;;;;15.20;34.30;;;;;;8332616;28;20405;-47
2022/01/15 18:08:08;;;;;;;;;;;15.20;34.30;;;;;;8359443;28;19947;-48
2022/01/15 18:12:10;;;;;;;;;;;15.10;34.30;;;;;;8338736;28;19935;-47
2022/01/15 18:16:11;;;;;;;;;;;15.10;34.30;;;;;;8339788;28;19923;-48
2022/01/15 18:20:11;;;;;;;;;;;15.10;34.30;;;;;;8340028;28;19917;-49
2022/01/15 18:24:14;;;;;;;;;;;15.10;34.40;;;;;;8347155;28;19974;-50
2022/01/15 18:28:14;;;;;;;;;;;15.10;34.40;;;;;;8332486;28;19917;-49
2022/01/15 18:32:15;;;;;;;;;;;15.10;34.40;;;;;;8360177;28;19925;-48
2022/01/15 18:36:16;;;;;;;;;;;15.10;34.40;;;;;;8353265;28;19917;-48
2022/01/15 18:40:17;;;;;;;;;;;15.10;34.40;;;;;;8354435;28;19921;-48
2022/01/15 18:44:18;;;;;;;;;;;15.10;34.40;;;;;;8342768;28;19917;-46
2022/01/15 18:48:18;;;;;;;;;;;15.10;34.40;;;;;;8340986;28;19921;-48
2022/01/15 18:52:19;;;;;;;;;;;15.10;34.40;;;;;;8332210;28;20305;-48
2022/01/15 18:56:19;;;;;;;;;;;15.10;34.50;;;;;;8334862;28;19917;-49
2022/01/15 19:00:21;;;;;;;;;;;15.10;34.50;;;;;;8336875;28;20292;-48
2022/01/15 19:04:21;;;;;;;;;;;15.10;34.50;;;;;;8327827;28;20370;-52
2022/01/15 19:08:22;;;;;;;;;;;15.00;34.50;;;;;;8341307;28;19943;-52
2022/01/15 19:12:22;;;;;;;;;;;15.00;34.50;;;;;;8361532;28;19929;-50
2022/01/15 19:16:23;;;;;;;;;;;15.10;34.40;;;;;;8333496;28;19924;-49
2022/01/15 19:20:23;;;;;;;;;;;15.10;34.40;;;;;;8334610;28;20298;-52
2022/01/15 19:24:24;;;;;;;;;;;15.10;34.40;;;;;;8330604;28;19956;-51
2022/01/15 19:28:24;;;;;;;;;;;15.10;34.30;;;;;;8333329;28;19913;-48
2022/01/15 19:32:27;;;;;;;;;;;15.20;34.40;;;;;;8335221;28;20023;-48
2022/01/15 19:36:27;;;;;;;;;;;15.20;34.30;;;;;;8334753;28;20325;-48
2022/01/15 19:40:27;;;;;;;;;;;15.20;34.90;;;;;;8334577;28;19948;-47
2022/01/15 19:44:29;;;;;;;;;;;15.30;34.40;;;;;;8334851;28;19925;-49
2022/01/15 19:48:30;;;;;;;;;;;15.30;34.30;;;;;;8334973;28;19925;-47
2022/01/15 19:52:30;;;;;;;;;;;15.30;34.30;;;;;;8333951;28;20428;-49
2022/01/15 19:56:32;;;;;;;;;;;15.30;34.30;;;;;;8334557;28;19964;-47
2022/01/15 20:00:33;;;;;;;;;;;15.20;34.30;;;;;;8334386;28;19980;-47
2022/01/15 20:04:33;;;;;;;;;;;15.20;34.30;;;;;;8331796;28;19925;-46
2022/01/15 20:08:34;;;;;;;;;;;15.20;34.40;;;;;;8334626;28;19913;-47
2022/01/15 20:12:34;;;;;;;;;;;15.20;34.40;;;;;;8310395;28;20287;-47
2022/01/15 20:16:35;;;;;;;;;;;15.20;34.50;;;;;;8319427;28;19924;-50
2022/01/15 20:20:35;;;;;;;;;;;15.20;34.50;;;;;;8334006;28;19924;-47
2022/01/15 20:24:36;;;;;;;;;;;15.20;34.60;;;;;;8332927;28;19921;-47
2022/01/15 20:28:36;;;;;;;;;;;15.20;34.60;;;;;;8332967;28;19951;-46
2022/01/15 20:32:38;;;;;;;;;;;15.20;34.70;;;;;;8333249;28;19936;-49
2022/01/15 20:36:39;;;;;;;;;;;15.10;34.60;;;;;;8333264;28;19987;-46
2022/01/15 20:40:39;;;;;;;;;;;15.20;34.70;;;;;;8332413;28;19998;-48
2022/01/15 20:44:40;;;;;;;;;;;15.10;34.70;;;;;;8332993;28;19992;-50
2022/01/15 20:48:40;;;;;;;;;;;15.20;34.70;;;;;;8333339;28;19921;-47
2022/01/15 20:52:41;;;;;;;;;;;15.20;34.60;;;;;;8331996;28;20426;-46
2022/01/15 20:56:41;;;;;;;;;;;15.10;34.60;;;;;;8332563;28;19963;-47
2022/01/15 21:00:42;;;;;;;;;;;15.10;34.60;;;;;;8332353;28;19972;-49
2022/01/15 21:04:42;;;;;;;;;;;15.20;34.60;;;;;;8331820;28;19940;-48
2022/01/15 21:08:43;;;;;;;;;;;15.10;34.60;;;;;;8332541;28;19945;-48
2022/01/15 21:12:43;;;;;;;;;;;15.10;34.60;;;;;;8332229;28;19932;-47
2022/01/15 21:16:44;;;;;;;;;;;15.10;34.60;;;;;;8331600;28;19924;-47
2022/01/15 21:20:44;;;;;;;;;;;15.10;34.60;;;;;;8332129;28;20024;-48
2022/01/15 21:24:46;;;;;;;;;;;15.10;34.60;;;;;;8331406;28;19921;-48
2022/01/15 21:28:47;;;;;;;;;;;15.10;34.60;;;;;;8331817;28;20294;-50
2022/01/15 21:32:48;;;;;;;;;;;15.10;34.60;;;;;;8331387;28;19964;-47
2022/01/15 21:36:48;;;;;;;;;;;15.00;34.60;;;;;;8330752;28;20294;-49
2022/01/15 21:40:49;;;;;;;;;;;15.10;34.70;;;;;;8331218;28;19917;-46
2022/01/15 21:44:50;;;;;;;;;;;15.10;34.70;;;;;;8331500;28;19914;-47
2022/01/15 21:48:50;;;;;;;;;;;15.10;34.70;;;;;;8330440;28;19948;-47
2022/01/15 21:52:50;;;;;;;;;;;15.10;34.60;;;;;;8330967;28;19925;-48
2022/01/15 21:56:51;;;;;;;;;;;15.10;34.60;;;;;;8330815;28;20012;-48
2022/01/15 22:00:52;;;;;;;;;;;15.10;34.50;;;;;;8330179;28;20015;-46
2022/01/15 22:04:52;;;;;;;;;;;15.20;34.50;;;;;;8331164;28;20341;-48
2022/01/15 22:08:58;;;;;;;;;;;15.20;34.50;;;;;;8330744;28;19923;-47
2022/01/15 22:12:59;;;;;;;;;;;15.20;34.50;;;;;;8329844;28;19925;-47
2022/01/15 22:16:59;;;;;;;;;;;15.20;34.40;;;;;;8330326;28;20551;-48
2022/01/15 22:21:00;;;;;;;;;;;15.20;34.40;;;;;;8330178;28;19978;-49
2022/01/15 22:25:03;;;;;;;;;;;15.20;34.40;;;;;;8329924;28;20416;-47
2022/01/15 22:29:05;;;;;;;;;;;15.30;34.50;;;;;;8330026;28;19924;-46
2022/01/15 22:33:07;;;;;;;;;;;15.30;34.50;;;;;;8329966;28;19925;-51
2022/01/15 22:37:07;;;;;;;;;;;15.30;34.60;;;;;;8329422;28;20402;-48
2022/01/15 22:41:08;;;;;;;;;;;15.30;34.60;;;;;;8329996;28;19917;-48
2022/01/15 22:45:14;;;;;;;;;;;15.30;34.50;;;;;;8330017;28;19914;-49
2022/01/15 22:49:14;;;;;;;;;;;15.20;34.50;;;;;;8333182;28;19928;-48
2022/01/15 22:53:15;;;;;;;;;;;15.20;34.50;;;;;;8336328;28;20016;-49
2022/01/15 22:57:16;;;;;;;;;;;15.20;34.50;;;;;;8318540;28;20039;-48
2022/01/15 23:01:16;;;;;;;;;;;15.20;34.50;;;;;;8335038;28;19921;-48
2022/01/15 23:05:17;;;;;;;;;;;15.20;34.50;;;;;;8336284;28;20301;-46
2022/01/15 23:09:17;;;;;;;;;;;15.20;34.60;;;;;;8335298;28;20394;-49
2022/01/15 23:13:21;;;;;;;;;;;15.20;34.60;;;;;;8335268;28;20342;-48
2022/01/15 23:17:22;;;;;;;;;;;15.10;34.50;;;;;;8317969;28;19924;-48
2022/01/15 23:21:23;;;;;;;;;;;15.10;34.60;;;;;;8335681;28;20374;-47
2022/01/15 23:25:25;;;;;;;;;;;15.10;34.60;;;;;;8335307;28;19936;-49
2022/01/15 23:29:25;;;;;;;;;;;15.20;34.60;;;;;;8317547;28;19971;-48
2022/01/15 23:33:26;;;;;;;;;;;15.20;34.60;;;;;;8335338;28;20397;-48
2022/01/15 23:37:27;;;;;;;;;;;15.20;35.10;;;;;;8334741;28;19921;-48
2022/01/15 23:41:27;;;;;;;;;;;15.20;34.60;;;;;;8335460;28;19925;-47
2022/01/15 23:45:40;;;;;;;;;;;15.20;34.60;;;;;;8334976;28;19996;-48
2022/01/15 23:49:40;;;;;;;;;;;15.20;34.60;;;;;;8334667;28;20286;-48